This is the latest recevied weather packets stored in our database for station/object N4LLZ-13. If no packets are shown the sender has not sent any weather packets the latest 10 day(s).
| Time | Temp. | Humidity | Pressure | Rain* | Wind** | Luminosity | Snow |
|---|---|---|---|---|---|---|---|
| 1787847437 | 30.56° C | 63% | 1016.2 hPa | 0 mm | - | - | - |
| 1787847136 | 30.56° C | 64% | 1016.2 hPa | 0 mm | - | - | - |
| 1787846835 | 30.56° C | 64% | 1016.2 hPa | 0 mm | - | - | - |
| 1787846534 | 30.56° C | 64% | 1016.3 hPa | 0 mm | - | - | - |
| 1787846233 | 31.11° C | 63% | 1016.4 hPa | 0 mm | - | - | - |
| 1787845933 | 31.11° C | 63% | 1016.4 hPa | 0 mm | - | - | - |
| 1787845632 | 30.56° C | 65% | 1016.5 hPa | 0 mm | - | - | - |
| 1787845332 | 30° C | 65% | 1016.5 hPa | 0 mm | - | - | - |
| 1787845031 | 30° C | 66% | 1016.6 hPa | 0 mm | - | - | - |
| 1787844731 | 30.56° C | 64% | 1016.7 hPa | 0 mm | - | - | - |
| 1787844430 | 30° C | 66% | 1016.6 hPa | 0 mm | - | - | - |
| 1787844130 | 30° C | 67% | 1016.6 hPa | 0 mm | - | - | - |
| 1787843829 | 30° C | 68% | 1016.5 hPa | 0 mm | - | - | - |
| 1787843528 | 29.44° C | 69% | 1016.5 hPa | 0 mm | - | - | - |
| 1787843227 | 29.44° C | 69% | 1016.5 hPa | 0 mm | - | - | - |
| 1787842927 | 30° C | 69% | 1016.5 hPa | 0 mm | - | - | - |
| 1787842626 | 29.44° C | 70% | 1016.5 hPa | 0 mm | - | - | - |
| 1787842325 | 28.89° C | 70% | 1016.6 hPa | 0 mm | - | - | - |
| 1787842024 | 28.89° C | 73% | 1016.6 hPa | 0 mm | - | - | - |
| 1787841723 | 28.89° C | 73% | 1016.6 hPa | 0 mm | - | - | - |
| 1787841423 | 28.89° C | 72% | 1016.7 hPa | 0 mm | - | - | - |
| 1787841122 | 28.89° C | 70% | 1016.7 hPa | 0 mm | - | - | - |
| 1787840821 | 28.33° C | 72% | 1016.6 hPa | 0 mm | - | - | - |
| 1787840520 | 27.78° C | 75% | 1016.6 hPa | 0 mm | - | - | - |
| 1787840219 | 27.78° C | 76% | 1016.7 hPa | 0 mm | - | - | - |
* Rain latest hour (hover to see other rain measurements)
** Current wind speed in m/s (hover to see current wind gust speed)